createdAt,value
2022-11-11T00:06:15.972Z,12.85
2022-11-11T00:11:26.850Z,16.08
2022-11-11T00:14:12.056Z,19.05
2022-11-11T00:17:15.876Z,18.90
2022-11-11T00:20:01.101Z,17.67
2022-11-11T00:23:15.374Z,14.73
2022-11-11T00:25:42.132Z,13.68
2022-11-11T00:28:27.506Z,12.30
2022-11-11T00:31:01.220Z,13.07
2022-11-11T00:33:46.489Z,12.90
2022-11-11T00:36:31.971Z,11.63
2022-11-11T00:39:17.082Z,11.75
2022-11-11T00:41:43.915Z,11.48
2022-11-11T00:44:29.001Z,11.35
2022-11-11T00:47:14.215Z,10.95
2022-11-11T00:50:18.009Z,10.82
2022-11-11T00:53:04.371Z,10.45
2022-11-11T00:55:49.771Z,10.98
2022-11-11T01:01:00.653Z,11.07
2022-11-11T01:03:46.048Z,10.63
2022-11-11T01:06:31.591Z,11.40
2022-11-11T01:09:17.055Z,10.45
2022-11-11T01:12:02.038Z,11.80
2022-11-11T01:14:28.619Z,12.32
2022-11-11T01:17:13.792Z,14.43
2022-11-11T01:19:59.215Z,14.52
2022-11-11T01:22:44.528Z,14.60
2022-11-11T01:30:01.958Z,16.75
2022-11-11T01:35:12.969Z,19.20
2022-11-11T01:37:59.466Z,17.40
2022-11-11T01:40:45.982Z,15.73
2022-11-11T01:43:12.703Z,15.88
2022-11-11T01:45:59.987Z,14.77
2022-11-11T01:48:45.216Z,14.90
2022-11-11T01:51:36.099Z,14.85
2022-11-11T01:54:04.361Z,12.50
2022-11-11T01:56:50.720Z,11.80
2022-11-11T02:01:44.246Z,11.20
2022-11-11T02:04:48.470Z,10.35
2022-11-11T02:07:34.626Z,9.18
2022-11-11T02:10:02.045Z,9.98
2022-11-11T02:13:06.052Z,10.60
2022-11-11T02:15:32.708Z,10.98
2022-11-11T02:18:18.241Z,11.02
2022-11-11T02:20:44.942Z,11.07
2022-11-11T02:23:35.971Z,10.02
2022-11-11T02:30:55.015Z,10.57
2022-11-11T02:33:40.711Z,10.20
2022-11-11T02:36:26.247Z,9.23
2022-11-11T02:46:49.725Z,9.13
2022-11-11T02:54:25.987Z,10.48
2022-11-11T02:57:11.377Z,9.73
2022-11-11T02:59:58.590Z,10.25
2022-11-11T03:05:09.529Z,9.93
2022-11-11T03:07:55.369Z,9.38
2022-11-11T03:10:22.399Z,8.63
2022-11-11T03:15:33.311Z,8.80
2022-11-11T03:18:18.891Z,9.52
2022-11-11T03:21:51.371Z,9.63
2022-11-11T03:26:56.941Z,8.85
2022-11-11T03:31:48.959Z,10.18
2022-11-11T03:34:33.845Z,9.57
2022-11-11T03:37:37.297Z,8.57
2022-11-11T03:40:22.474Z,8.65
2022-11-11T03:42:49.004Z,8.68
2022-11-11T03:47:59.609Z,8.18
2022-11-11T03:53:10.248Z,9.48
2022-11-11T03:55:55.328Z,8.30
2022-11-11T03:58:40.283Z,8.27
2022-11-11T04:01:26.851Z,9.70
2022-11-11T04:04:30.154Z,8.82
2022-11-11T04:07:15.452Z,8.88
2022-11-11T04:10:19.251Z,8.90
2022-11-11T04:15:48.100Z,8.93
2022-11-11T04:21:36.788Z,8.98
2022-11-11T04:24:40.481Z,8.75
2022-11-11T04:30:28.690Z,8.18
2022-11-11T04:33:14.045Z,9.35
2022-11-11T04:35:59.390Z,8.70
2022-11-11T04:39:03.268Z,8.70
2022-11-11T04:46:57.616Z,8.68
2022-11-11T04:49:42.774Z,8.65
2022-11-11T04:52:28.902Z,8.50
2022-11-11T04:55:40.249Z,8.93
2022-11-11T05:03:15.801Z,9.60
2022-11-11T05:06:36.781Z,9.30
2022-11-11T05:11:47.393Z,8.15
2022-11-11T05:22:44.832Z,9.35
2022-11-11T05:30:24.153Z,9.07
2022-11-11T05:38:20.381Z,8.95
2022-11-11T05:41:06.239Z,8.30
2022-11-11T05:43:32.822Z,8.90
2022-11-11T05:46:18.067Z,8.45
2022-11-11T05:54:06.219Z,9.20
2022-11-11T05:56:51.838Z,9.73
2022-11-11T05:59:37.157Z,11.10
2022-11-11T06:02:22.166Z,9.23
2022-11-11T06:05:08.676Z,9.90
2022-11-11T06:10:23.531Z,9.48
2022-11-11T06:13:13.439Z,10.82
2022-11-11T06:15:59.132Z,14.07
2022-11-11T06:18:30.980Z,15.57
2022-11-11T06:21:16.796Z,15.23
2022-11-11T06:26:28.138Z,10.55
2022-11-11T06:29:13.099Z,7.75
2022-11-11T06:31:58.265Z,7.78
2022-11-11T06:34:24.900Z,8.80
2022-11-11T06:37:10.176Z,8.27
2022-11-11T06:39:55.406Z,7.20
2022-11-11T06:42:22.073Z,7.70
2022-11-11T06:45:07.572Z,8.18
2022-11-11T06:47:52.802Z,7.13
2022-11-11T06:52:45.341Z,6.90
2022-11-11T06:57:56.081Z,7.65
2022-11-11T07:00:41.303Z,7.90
2022-11-11T07:03:26.798Z,8.70
2022-11-11T07:05:59.108Z,7.90
2022-11-11T07:08:44.881Z,7.47
2022-11-11T07:13:37.092Z,9.25
2022-11-11T07:21:13.209Z,8.10
2022-11-11T07:26:24.096Z,8.07
2022-11-11T07:38:52.876Z,9.32
2022-11-11T07:41:38.216Z,8.98
2022-11-11T07:44:23.768Z,8.63
2022-11-11T07:52:01.328Z,8.18
2022-11-11T07:54:50.040Z,8.98
2022-11-11T07:57:36.077Z,8.02
2022-11-11T08:00:04.288Z,7.97
2022-11-11T08:02:49.967Z,8.33
2022-11-11T08:07:42.822Z,7.78
2022-11-11T08:10:27.758Z,8.07
2022-11-11T08:13:31.412Z,8.02
2022-11-11T08:20:53.679Z,8.40
2022-11-11T08:26:06.329Z,8.77
2022-11-11T08:28:52.991Z,8.55
2022-11-11T08:31:39.363Z,7.75
2022-11-11T08:36:49.981Z,8.40
2022-11-11T08:46:54.745Z,8.93
2022-11-11T08:49:40.307Z,8.50
2022-11-11T08:52:27.032Z,9.23
2022-11-11T08:57:19.911Z,8.45
2022-11-11T09:12:15.400Z,6.45
2022-11-11T09:14:42.270Z,6.07
2022-11-11T09:19:34.629Z,5.78
2022-11-11T09:22:19.749Z,5.72
2022-11-11T09:25:05.171Z,5.57
2022-11-11T09:28:00.247Z,5.28
2022-11-11T09:30:45.993Z,5.18
2022-11-11T09:33:14.803Z,5.47
2022-11-11T09:36:00.155Z,4.15
2022-11-11T09:51:33.313Z,4.72
2022-11-11T09:54:23.745Z,3.80
2022-11-11T09:56:54.491Z,3.90
2022-11-11T09:59:44.110Z,3.90
2022-11-11T10:07:38.714Z,4.32
2022-11-11T10:10:27.199Z,3.60
2022-11-11T10:12:56.116Z,4.53
2022-11-11T10:15:46.031Z,4.30
2022-11-11T10:18:23.876Z,3.42
2022-11-11T10:21:13.777Z,3.38
2022-11-11T10:26:33.432Z,3.33
2022-11-11T10:32:01.128Z,2.63
2022-11-11T10:34:46.497Z,2.45
2022-11-11T10:37:39.657Z,3.13
2022-11-11T10:40:12.452Z,3.17
2022-11-11T10:42:43.504Z,3.08
2022-11-11T11:03:09.108Z,4.05
2022-11-11T11:05:54.502Z,4.22
2022-11-11T11:10:56.959Z,9.57
2022-11-11T11:14:00.106Z,9.65
2022-11-11T11:16:51.604Z,8.88
2022-11-11T11:24:30.133Z,4.25
2022-11-11T11:27:25.355Z,4.45
2022-11-11T11:30:18.107Z,3.90
2022-11-11T11:33:00.871Z,4.53
2022-11-11T11:35:46.082Z,4.57
2022-11-11T11:38:13.840Z,4.07
2022-11-11T11:40:59.562Z,4.22
2022-11-11T11:43:27.932Z,4.18
2022-11-11T11:46:23.880Z,4.22
2022-11-11T11:48:52.486Z,4.30
2022-11-11T11:52:04.425Z,5.28
2022-11-11T11:57:25.287Z,4.50
2022-11-11T12:00:19.437Z,12.45
2022-11-11T12:03:04.837Z,6.60
2022-11-11T12:05:36.102Z,10.30
2022-11-11T12:08:21.312Z,4.45
2022-11-11T12:10:54.072Z,5.60
2022-11-11T12:13:48.165Z,5.32
2022-11-11T12:22:03.078Z,6.10
2022-11-11T12:25:07.928Z,5.00
2022-11-11T12:27:58.958Z,5.80
2022-11-11T12:30:52.160Z,4.07
2022-11-11T12:33:37.981Z,4.43
2022-11-11T12:36:36.557Z,4.03
2022-11-11T12:41:51.080Z,2.80
2022-11-11T12:47:29.614Z,2.78
2022-11-11T12:53:35.910Z,3.58
2022-11-11T12:56:35.286Z,3.35
2022-11-11T12:59:26.623Z,2.95
2022-11-11T13:02:30.577Z,3.17
2022-11-11T13:05:15.286Z,4.30
2022-11-11T13:08:14.238Z,12.70
2022-11-11T13:10:59.409Z,8.52
2022-11-11T13:16:08.069Z,4.97
2022-11-11T13:19:06.812Z,5.22
2022-11-11T13:21:57.626Z,7.03
2022-11-11T13:24:42.757Z,4.53
2022-11-11T13:27:28.171Z,6.65
2022-11-11T13:30:26.867Z,6.95
2022-11-11T13:43:20.970Z,4.55
2022-11-11T13:46:06.709Z,5.63
2022-11-11T13:48:51.603Z,9.07
2022-11-11T13:53:58.130Z,6.85
2022-11-11T13:56:45.185Z,16.83
2022-11-11T13:59:32.782Z,12.35
2022-11-11T14:02:29.323Z,12.38
2022-11-11T14:05:16.119Z,8.05
2022-11-11T14:07:42.680Z,4.32
2022-11-11T14:10:27.912Z,40.03
2022-11-11T14:15:39.245Z,26.90
2022-11-11T14:20:50.832Z,5.25
2022-11-11T14:26:06.235Z,6.72
2022-11-11T14:28:53.420Z,41.17
2022-11-11T14:32:07.665Z,9.07
2022-11-11T14:34:52.756Z,16.92
2022-11-11T14:37:57.636Z,26.05
2022-11-11T14:40:28.674Z,14.23
2022-11-11T14:43:32.421Z,20.33
2022-11-11T14:48:50.090Z,19.50
2022-11-11T14:51:54.128Z,9.07
2022-11-11T14:54:46.901Z,9.02
2022-11-11T14:57:22.936Z,11.25
2022-11-11T15:00:26.630Z,7.95
2022-11-11T15:03:30.026Z,6.30
2022-11-11T15:06:18.692Z,5.07
2022-11-11T15:09:04.201Z,7.53
2022-11-11T15:11:58.955Z,7.43
2022-11-11T15:17:20.006Z,6.07
2022-11-11T15:20:20.511Z,7.28
2022-11-11T15:23:28.639Z,5.80
2022-11-11T15:26:07.480Z,5.07
2022-11-11T15:29:00.149Z,4.75
2022-11-11T15:34:04.618Z,4.28
2022-11-11T15:36:53.206Z,3.60
2022-11-11T15:39:42.077Z,4.07
2022-11-11T15:42:34.522Z,3.63
2022-11-11T15:45:19.892Z,3.75
2022-11-11T15:50:18.164Z,4.13
2022-11-11T15:55:31.766Z,3.85
2022-11-11T15:58:34.454Z,4.10
2022-11-11T16:01:25.070Z,4.28
2022-11-11T16:04:48.601Z,3.67
2022-11-11T16:07:03.662Z,4.00
2022-11-11T16:11:58.436Z,4.30
2022-11-11T16:17:12.395Z,3.92
2022-11-11T16:22:25.699Z,5.00
2022-11-11T16:25:19.300Z,3.95
2022-11-11T16:28:04.612Z,4.95
2022-11-11T16:33:33.270Z,8.57
2022-11-11T16:36:18.606Z,16.27
2022-11-11T16:39:16.457Z,8.88
2022-11-11T16:41:45.879Z,7.30
2022-11-11T16:44:35.848Z,7.82
2022-11-11T16:49:36.523Z,7.20
2022-11-11T16:52:23.463Z,9.23
2022-11-11T16:57:54.143Z,9.90
2022-11-11T17:00:41.315Z,9.43
2022-11-11T17:03:12.689Z,8.68
2022-11-11T17:06:11.029Z,10.15
2022-11-11T17:08:39.812Z,10.43
2022-11-11T17:11:42.630Z,9.07
2022-11-11T17:16:38.256Z,7.93
2022-11-11T17:19:05.980Z,7.82
2022-11-11T17:21:51.318Z,8.85
2022-11-11T17:24:36.736Z,8.68
2022-11-11T17:27:03.708Z,8.70
2022-11-11T17:29:48.524Z,13.30
2022-11-11T17:32:33.392Z,9.73
2022-11-11T17:35:18.720Z,11.45
2022-11-11T17:37:45.418Z,11.40
2022-11-11T17:40:30.924Z,11.27
2022-11-11T17:43:16.616Z,13.10
2022-11-11T17:46:03.067Z,10.23
2022-11-11T17:50:55.484Z,9.70
2022-11-11T17:56:07.699Z,8.65
2022-11-11T18:03:44.220Z,10.52
2022-11-11T18:11:21.022Z,11.13
2022-11-11T18:14:06.227Z,12.98
2022-11-11T18:16:51.411Z,12.43
2022-11-11T18:19:36.822Z,12.35
2022-11-11T18:22:21.912Z,12.15
2022-11-11T18:25:07.333Z,12.88
2022-11-11T18:27:33.919Z,13.73
2022-11-11T18:30:19.672Z,13.20
2022-11-11T18:40:04.673Z,11.43
2022-11-11T18:42:50.167Z,10.95
2022-11-11T18:45:36.477Z,11.05
2022-11-11T18:48:21.939Z,12.65
2022-11-11T18:51:08.212Z,13.15
2022-11-11T18:56:15.179Z,16.42
2022-11-11T19:04:03.196Z,11.98
2022-11-11T19:06:52.246Z,11.90
2022-11-11T19:09:19.101Z,11.63
2022-11-11T19:12:05.533Z,12.57
2022-11-11T19:14:50.790Z,11.73
2022-11-11T19:17:35.854Z,12.20
2022-11-11T19:20:02.455Z,12.57
2022-11-11T19:22:47.420Z,12.70
2022-11-11T19:25:32.969Z,13.68
2022-11-11T19:28:18.338Z,13.27
2022-11-11T19:30:45.099Z,13.70
2022-11-11T19:33:31.667Z,14.05
2022-11-11T19:35:59.351Z,14.30
2022-11-11T19:38:44.998Z,13.85
2022-11-11T19:41:13.342Z,14.52
2022-11-11T19:43:58.264Z,15.27
2022-11-11T19:46:25.651Z,14.43
2022-11-11T19:49:10.765Z,13.40
2022-11-11T19:51:37.420Z,23.80
2022-11-11T19:54:22.166Z,22.58
2022-11-11T20:01:41.345Z,21.75
2022-11-11T20:04:28.064Z,25.38
2022-11-11T20:09:39.892Z,25.90
2022-11-11T20:12:27.572Z,16.60
2022-11-11T20:15:12.581Z,14.98
2022-11-11T20:17:57.547Z,14.07
2022-11-11T20:20:24.397Z,14.27
2022-11-11T20:23:09.577Z,15.45
2022-11-11T20:25:39.860Z,15.27
2022-11-11T20:28:25.385Z,15.32
2022-11-11T20:30:52.150Z,17.45
2022-11-11T20:33:36.987Z,19.17
2022-11-11T20:36:04.456Z,20.85
2022-11-11T20:38:49.779Z,19.05
2022-11-11T20:41:17.361Z,20.65
2022-11-11T20:44:03.742Z,20.73
2022-11-11T20:48:55.753Z,21.42
2022-11-11T20:51:40.854Z,19.60
2022-11-11T20:54:26.102Z,20.20
2022-11-11T20:57:11.124Z,19.80
2022-11-11T21:02:03.342Z,17.45
2022-11-11T21:09:39.967Z,26.17
2022-11-11T21:14:50.998Z,15.48
2022-11-11T21:20:01.864Z,14.95
2022-11-11T21:27:38.162Z,15.43
2022-11-11T21:30:23.397Z,15.30
2022-11-11T21:33:09.020Z,16.08
2022-11-11T21:38:01.015Z,18.30
2022-11-11T21:40:46.209Z,16.88
2022-11-11T21:43:31.524Z,17.23
2022-11-11T21:46:05.337Z,18.90
2022-11-11T21:48:54.168Z,19.20
2022-11-11T21:51:39.615Z,15.98
2022-11-11T21:54:25.137Z,15.30
2022-11-11T21:59:18.163Z,15.90
2022-11-11T22:02:03.660Z,16.17
2022-11-11T22:04:48.904Z,16.33
2022-11-11T22:09:40.898Z,17.25
2022-11-11T22:12:26.357Z,17.05
2022-11-11T22:15:11.462Z,15.23
2022-11-11T22:17:56.785Z,14.63
2022-11-11T22:20:41.952Z,13.93
2022-11-11T22:23:08.666Z,14.75
2022-11-11T22:25:58.355Z,14.40
2022-11-11T22:28:25.228Z,14.57
2022-11-11T22:31:11.777Z,15.02
2022-11-11T22:34:00.059Z,14.55
2022-11-11T22:36:45.665Z,14.68
2022-11-11T22:44:05.119Z,17.73
2022-11-11T22:46:50.081Z,17.52
2022-11-11T22:49:35.482Z,17.05
2022-11-11T22:54:27.687Z,15.93
2022-11-11T22:59:38.281Z,15.82
2022-11-11T23:07:14.632Z,15.13
2022-11-11T23:09:59.818Z,14.80
2022-11-11T23:12:44.908Z,15.02
2022-11-11T23:17:57.645Z,14.75
2022-11-11T23:20:42.697Z,14.55
2022-11-11T23:23:28.285Z,14.43
2022-11-11T23:26:14.945Z,14.77
2022-11-11T23:29:00.611Z,13.93
2022-11-11T23:31:28.627Z,14.10
2022-11-11T23:34:13.660Z,15.35
2022-11-11T23:39:11.381Z,14.45
2022-11-11T23:41:56.508Z,14.88
2022-11-11T23:44:41.819Z,15.05
2022-11-11T23:47:09.080Z,16.23
2022-11-11T23:49:54.021Z,18.98
2022-11-11T23:55:04.537Z,18.55
